sensor_id;sensor_type;location;lat;lon;timestamp;P1;durP1;ratioP1;P2;durP2;ratioP2
68449;SDS011;55434;39.570;2.652;2022-12-13T00:01:46;7.80;;;0.82;;
68449;SDS011;55434;39.570;2.652;2022-12-13T00:04:14;6.00;;;0.80;;
68449;SDS011;55434;39.570;2.652;2022-12-13T00:06:40;6.03;;;1.00;;
68449;SDS011;55434;39.570;2.652;2022-12-13T00:09:06;7.17;;;0.70;;
68449;SDS011;55434;39.570;2.652;2022-12-13T00:11:32;6.45;;;0.88;;
68449;SDS011;55434;39.570;2.652;2022-12-13T00:13:57;9.18;;;1.00;;
68449;SDS011;55434;39.570;2.652;2022-12-13T00:16:24;5.90;;;0.80;;
68449;SDS011;55434;39.570;2.652;2022-12-13T00:18:51;5.60;;;1.00;;
68449;SDS011;55434;39.570;2.652;2022-12-13T00:21:23;5.28;;;1.02;;
68449;SDS011;55434;39.570;2.652;2022-12-13T00:23:50;5.85;;;0.73;;
68449;SDS011;55434;39.570;2.652;2022-12-13T00:26:17;9.30;;;1.43;;
68449;SDS011;55434;39.570;2.652;2022-12-13T00:28:44;5.53;;;1.05;;
68449;SDS011;55434;39.570;2.652;2022-12-13T00:31:13;5.88;;;1.02;;
68449;SDS011;55434;39.570;2.652;2022-12-13T00:33:39;5.60;;;0.88;;
68449;SDS011;55434;39.570;2.652;2022-12-13T00:36:06;7.25;;;1.10;;
68449;SDS011;55434;39.570;2.652;2022-12-13T00:38:36;5.70;;;0.80;;
68449;SDS011;55434;39.570;2.652;2022-12-13T00:43:42;6.95;;;0.90;;
68449;SDS011;55434;39.570;2.652;2022-12-13T00:46:15;6.97;;;0.90;;
68449;SDS011;55434;39.570;2.652;2022-12-13T00:48:53;5.75;;;0.82;;
68449;SDS011;55434;39.570;2.652;2022-12-13T00:51:25;9.15;;;1.33;;
68449;SDS011;55434;39.570;2.652;2022-12-13T00:53:53;7.78;;;1.00;;
68449;SDS011;55434;39.570;2.652;2022-12-13T00:56:20;9.75;;;1.15;;
68449;SDS011;55434;39.570;2.652;2022-12-13T00:58:49;6.47;;;1.05;;
68449;SDS011;55434;39.570;2.652;2022-12-13T01:01:17;6.85;;;0.80;;
68449;SDS011;55434;39.570;2.652;2022-12-13T01:03:49;8.77;;;1.00;;
68449;SDS011;55434;39.570;2.652;2022-12-13T01:06:19;7.25;;;1.02;;
68449;SDS011;55434;39.570;2.652;2022-12-13T01:08:47;7.22;;;0.82;;
68449;SDS011;55434;39.570;2.652;2022-12-13T01:11:13;7.87;;;1.53;;
68449;SDS011;55434;39.570;2.652;2022-12-13T01:13:42;10.43;;;1.40;;
68449;SDS011;55434;39.570;2.652;2022-12-13T01:16:08;6.43;;;1.15;;
68449;SDS011;55434;39.570;2.652;2022-12-13T01:18:35;7.53;;;1.38;;
68449;SDS011;55434;39.570;2.652;2022-12-13T01:21:03;13.95;;;1.90;;
68449;SDS011;55434;39.570;2.652;2022-12-13T01:23:34;11.52;;;1.60;;
68449;SDS011;55434;39.570;2.652;2022-12-13T01:26:06;9.23;;;1.30;;
68449;SDS011;55434;39.570;2.652;2022-12-13T01:28:33;9.10;;;1.52;;
68449;SDS011;55434;39.570;2.652;2022-12-13T01:31:00;9.00;;;1.10;;
68449;SDS011;55434;39.570;2.652;2022-12-13T01:33:34;11.43;;;1.23;;
68449;SDS011;55434;39.570;2.652;2022-12-13T01:36:01;8.05;;;1.35;;
68449;SDS011;55434;39.570;2.652;2022-12-13T01:38:28;15.60;;;1.98;;
68449;SDS011;55434;39.570;2.652;2022-12-13T01:40:54;12.40;;;1.27;;
68449;SDS011;55434;39.570;2.652;2022-12-13T01:43:24;10.48;;;1.30;;
68449;SDS011;55434;39.570;2.652;2022-12-13T01:46:13;10.60;;;1.30;;
68449;SDS011;55434;39.570;2.652;2022-12-13T01:48:41;7.47;;;1.30;;
68449;SDS011;55434;39.570;2.652;2022-12-13T01:51:11;7.43;;;1.30;;
68449;SDS011;55434;39.570;2.652;2022-12-13T01:53:41;11.60;;;1.55;;
68449;SDS011;55434;39.570;2.652;2022-12-13T01:56:13;15.55;;;1.92;;
68449;SDS011;55434;39.570;2.652;2022-12-13T01:58:45;10.73;;;1.67;;
68449;SDS011;55434;39.570;2.652;2022-12-13T02:01:13;7.70;;;1.10;;
68449;SDS011;55434;39.570;2.652;2022-12-13T02:03:40;10.73;;;1.45;;
68449;SDS011;55434;39.570;2.652;2022-12-13T02:06:08;8.35;;;1.23;;
68449;SDS011;55434;39.570;2.652;2022-12-13T02:08:38;8.20;;;1.30;;
68449;SDS011;55434;39.570;2.652;2022-12-13T02:11:05;11.38;;;1.25;;
68449;SDS011;55434;39.570;2.652;2022-12-13T02:13:32;7.88;;;1.08;;
68449;SDS011;55434;39.570;2.652;2022-12-13T02:16:01;6.87;;;1.00;;
68449;SDS011;55434;39.570;2.652;2022-12-13T02:26:41;9.27;;;1.25;;
68449;SDS011;55434;39.570;2.652;2022-12-13T02:34:43;7.07;;;0.80;;
68449;SDS011;55434;39.570;2.652;2022-12-13T02:37:17;7.68;;;0.73;;
68449;SDS011;55434;39.570;2.652;2022-12-13T02:40:50;2.78;;;0.52;;
68449;SDS011;55434;39.570;2.652;2022-12-13T02:48:12;8.90;;;1.05;;
68449;SDS011;55434;39.570;2.652;2022-12-13T02:50:41;6.32;;;0.88;;
68449;SDS011;55434;39.570;2.652;2022-12-13T02:53:08;8.02;;;1.10;;
68449;SDS011;55434;39.570;2.652;2022-12-13T02:55:38;6.65;;;0.85;;
68449;SDS011;55434;39.570;2.652;2022-12-13T02:58:04;4.32;;;0.50;;
68449;SDS011;55434;39.570;2.652;2022-12-13T03:03:45;5.20;;;0.82;;
68449;SDS011;55434;39.570;2.652;2022-12-13T03:09:53;5.57;;;0.93;;
68449;SDS011;55434;39.570;2.652;2022-12-13T03:18:13;4.93;;;0.50;;
68449;SDS011;55434;39.570;2.652;2022-12-13T03:20:46;7.30;;;1.23;;
68449;SDS011;55434;39.570;2.652;2022-12-13T03:23:14;7.30;;;0.85;;
68449;SDS011;55434;39.570;2.652;2022-12-13T03:25:41;6.40;;;0.73;;
68449;SDS011;55434;39.570;2.652;2022-12-13T03:28:08;8.93;;;1.00;;
68449;SDS011;55434;39.570;2.652;2022-12-13T03:30:34;6.70;;;1.08;;
68449;SDS011;55434;39.570;2.652;2022-12-13T03:33:00;4.28;;;0.57;;
68449;SDS011;55434;39.570;2.652;2022-12-13T03:35:26;5.90;;;0.73;;
68449;SDS011;55434;39.570;2.652;2022-12-13T03:37:52;3.15;;;0.57;;
68449;SDS011;55434;39.570;2.652;2022-12-13T03:40:18;4.68;;;0.50;;
68449;SDS011;55434;39.570;2.652;2022-12-13T03:42:47;5.13;;;0.60;;
68449;SDS011;55434;39.570;2.652;2022-12-13T03:45:13;5.95;;;1.30;;
68449;SDS011;55434;39.570;2.652;2022-12-13T03:47:38;6.97;;;1.20;;
68449;SDS011;55434;39.570;2.652;2022-12-13T03:50:04;6.50;;;0.90;;
68449;SDS011;55434;39.570;2.652;2022-12-13T03:52:30;4.72;;;0.70;;
68449;SDS011;55434;39.570;2.652;2022-12-13T03:54:56;3.88;;;0.55;;
68449;SDS011;55434;39.570;2.652;2022-12-13T03:57:21;3.80;;;0.47;;
68449;SDS011;55434;39.570;2.652;2022-12-13T03:59:47;4.00;;;0.50;;
68449;SDS011;55434;39.570;2.652;2022-12-13T04:02:13;2.78;;;0.32;;
68449;SDS011;55434;39.570;2.652;2022-12-13T04:04:38;6.00;;;0.97;;
68449;SDS011;55434;39.570;2.652;2022-12-13T04:07:04;3.97;;;0.68;;
68449;SDS011;55434;39.570;2.652;2022-12-13T04:09:30;4.27;;;0.40;;
68449;SDS011;55434;39.570;2.652;2022-12-13T04:11:55;5.33;;;0.43;;
68449;SDS011;55434;39.570;2.652;2022-12-13T04:14:39;8.13;;;0.88;;
68449;SDS011;55434;39.570;2.652;2022-12-13T04:17:05;3.80;;;0.43;;
68449;SDS011;55434;39.570;2.652;2022-12-13T04:19:31;6.53;;;0.70;;
68449;SDS011;55434;39.570;2.652;2022-12-13T04:21:56;5.18;;;0.60;;
68449;SDS011;55434;39.570;2.652;2022-12-13T04:24:22;4.93;;;0.50;;
68449;SDS011;55434;39.570;2.652;2022-12-13T04:26:49;4.95;;;0.70;;
68449;SDS011;55434;39.570;2.652;2022-12-13T04:29:15;5.63;;;0.50;;
68449;SDS011;55434;39.570;2.652;2022-12-13T04:31:41;5.57;;;0.67;;
68449;SDS011;55434;39.570;2.652;2022-12-13T04:34:07;3.33;;;0.50;;
68449;SDS011;55434;39.570;2.652;2022-12-13T04:36:32;5.47;;;0.50;;
68449;SDS011;55434;39.570;2.652;2022-12-13T04:38:59;4.38;;;0.50;;
68449;SDS011;55434;39.570;2.652;2022-12-13T04:41:25;2.88;;;0.47;;
68449;SDS011;55434;39.570;2.652;2022-12-13T04:43:52;3.57;;;0.40;;
68449;SDS011;55434;39.570;2.652;2022-12-13T04:46:20;3.15;;;0.40;;
68449;SDS011;55434;39.570;2.652;2022-12-13T04:48:50;5.22;;;0.70;;
68449;SDS011;55434;39.570;2.652;2022-12-13T04:51:15;1.87;;;0.30;;
68449;SDS011;55434;39.570;2.652;2022-12-13T04:53:41;2.17;;;0.32;;
68449;SDS011;55434;39.570;2.652;2022-12-13T04:56:07;3.33;;;0.50;;
68449;SDS011;55434;39.570;2.652;2022-12-13T04:58:33;2.97;;;0.60;;
68449;SDS011;55434;39.570;2.652;2022-12-13T05:00:59;7.03;;;0.63;;
68449;SDS011;55434;39.570;2.652;2022-12-13T05:03:24;2.33;;;0.50;;
68449;SDS011;55434;39.570;2.652;2022-12-13T05:05:53;3.28;;;0.55;;
68449;SDS011;55434;39.570;2.652;2022-12-13T05:08:24;3.03;;;0.50;;
68449;SDS011;55434;39.570;2.652;2022-12-13T05:10:49;5.03;;;0.68;;
68449;SDS011;55434;39.570;2.652;2022-12-13T05:13:15;3.80;;;0.40;;
68449;SDS011;55434;39.570;2.652;2022-12-13T05:15:41;3.50;;;0.50;;
68449;SDS011;55434;39.570;2.652;2022-12-13T05:18:07;2.57;;;0.47;;
68449;SDS011;55434;39.570;2.652;2022-12-13T05:20:33;2.80;;;0.70;;
68449;SDS011;55434;39.570;2.652;2022-12-13T05:23:00;4.35;;;0.63;;
68449;SDS011;55434;39.570;2.652;2022-12-13T05:25:26;4.00;;;0.63;;
68449;SDS011;55434;39.570;2.652;2022-12-13T05:27:52;3.17;;;0.50;;
68449;SDS011;55434;39.570;2.652;2022-12-13T05:30:18;5.50;;;0.57;;
68449;SDS011;55434;39.570;2.652;2022-12-13T05:32:44;3.13;;;0.50;;
68449;SDS011;55434;39.570;2.652;2022-12-13T05:35:15;4.88;;;0.50;;
68449;SDS011;55434;39.570;2.652;2022-12-13T05:37:41;2.92;;;0.52;;
68449;SDS011;55434;39.570;2.652;2022-12-13T05:40:10;2.13;;;0.68;;
68449;SDS011;55434;39.570;2.652;2022-12-13T05:42:36;3.50;;;0.60;;
68449;SDS011;55434;39.570;2.652;2022-12-13T05:45:06;3.70;;;0.40;;
68449;SDS011;55434;39.570;2.652;2022-12-13T05:47:33;3.10;;;0.60;;
68449;SDS011;55434;39.570;2.652;2022-12-13T05:49:59;4.55;;;0.77;;
68449;SDS011;55434;39.570;2.652;2022-12-13T05:52:27;5.33;;;0.60;;
68449;SDS011;55434;39.570;2.652;2022-12-13T05:54:53;2.53;;;0.43;;
68449;SDS011;55434;39.570;2.652;2022-12-13T05:57:20;6.20;;;0.60;;
68449;SDS011;55434;39.570;2.652;2022-12-13T05:59:47;2.40;;;0.60;;
68449;SDS011;55434;39.570;2.652;2022-12-13T06:02:12;3.33;;;0.80;;
68449;SDS011;55434;39.570;2.652;2022-12-13T06:04:38;2.30;;;0.57;;
68449;SDS011;55434;39.570;2.652;2022-12-13T06:07:04;3.80;;;0.67;;
68449;SDS011;55434;39.570;2.652;2022-12-13T06:09:56;3.67;;;0.52;;
68449;SDS011;55434;39.570;2.652;2022-12-13T06:12:22;5.05;;;0.82;;
68449;SDS011;55434;39.570;2.652;2022-12-13T06:14:53;2.37;;;0.40;;
68449;SDS011;55434;39.570;2.652;2022-12-13T06:17:19;5.43;;;0.80;;
68449;SDS011;55434;39.570;2.652;2022-12-13T06:19:49;4.30;;;0.40;;
68449;SDS011;55434;39.570;2.652;2022-12-13T06:22:17;3.53;;;0.40;;
68449;SDS011;55434;39.570;2.652;2022-12-13T06:24:43;3.08;;;0.50;;
68449;SDS011;55434;39.570;2.652;2022-12-13T06:27:09;6.40;;;0.65;;
68449;SDS011;55434;39.570;2.652;2022-12-13T06:29:34;4.97;;;0.70;;
68449;SDS011;55434;39.570;2.652;2022-12-13T06:32:00;8.33;;;0.57;;
68449;SDS011;55434;39.570;2.652;2022-12-13T06:34:27;6.15;;;0.32;;
68449;SDS011;55434;39.570;2.652;2022-12-13T06:36:53;2.25;;;0.50;;
68449;SDS011;55434;39.570;2.652;2022-12-13T06:39:19;4.10;;;0.40;;
68449;SDS011;55434;39.570;2.652;2022-12-13T06:41:46;3.10;;;0.60;;
68449;SDS011;55434;39.570;2.652;2022-12-13T06:44:11;4.05;;;0.45;;
68449;SDS011;55434;39.570;2.652;2022-12-13T06:46:37;3.23;;;0.50;;
68449;SDS011;55434;39.570;2.652;2022-12-13T06:49:03;3.22;;;0.60;;
68449;SDS011;55434;39.570;2.652;2022-12-13T06:51:29;2.38;;;0.47;;
68449;SDS011;55434;39.570;2.652;2022-12-13T06:53:55;4.00;;;0.60;;
68449;SDS011;55434;39.570;2.652;2022-12-13T06:56:20;3.40;;;0.55;;
68449;SDS011;55434;39.570;2.652;2022-12-13T06:58:46;4.83;;;0.70;;
68449;SDS011;55434;39.570;2.652;2022-12-13T07:01:13;4.18;;;0.52;;
68449;SDS011;55434;39.570;2.652;2022-12-13T07:03:41;5.03;;;0.57;;
68449;SDS011;55434;39.570;2.652;2022-12-13T07:06:17;3.63;;;0.70;;
68449;SDS011;55434;39.570;2.652;2022-12-13T07:08:51;4.00;;;0.70;;
68449;SDS011;55434;39.570;2.652;2022-12-13T07:11:20;2.55;;;0.40;;
68449;SDS011;55434;39.570;2.652;2022-12-13T07:13:47;4.35;;;0.50;;
68449;SDS011;55434;39.570;2.652;2022-12-13T07:16:12;3.97;;;0.70;;
68449;SDS011;55434;39.570;2.652;2022-12-13T07:18:39;4.32;;;0.73;;
68449;SDS011;55434;39.570;2.652;2022-12-13T07:21:06;3.95;;;0.50;;
68449;SDS011;55434;39.570;2.652;2022-12-13T07:23:33;1.65;;;0.30;;
68449;SDS011;55434;39.570;2.652;2022-12-13T07:25:59;4.47;;;0.75;;
68449;SDS011;55434;39.570;2.652;2022-12-13T07:28:25;4.53;;;0.70;;
68449;SDS011;55434;39.570;2.652;2022-12-13T07:30:50;3.33;;;0.55;;
68449;SDS011;55434;39.570;2.652;2022-12-13T07:33:16;5.93;;;0.70;;
68449;SDS011;55434;39.570;2.652;2022-12-13T07:35:41;4.30;;;0.50;;
68449;SDS011;55434;39.570;2.652;2022-12-13T07:38:09;3.30;;;0.60;;
68449;SDS011;55434;39.570;2.652;2022-12-13T07:40:37;4.13;;;0.50;;
68449;SDS011;55434;39.570;2.652;2022-12-13T07:43:04;4.43;;;0.65;;
68449;SDS011;55434;39.570;2.652;2022-12-13T07:45:30;3.38;;;0.68;;
68449;SDS011;55434;39.570;2.652;2022-12-13T07:47:56;2.83;;;0.57;;
68449;SDS011;55434;39.570;2.652;2022-12-13T07:50:22;5.07;;;0.60;;
68449;SDS011;55434;39.570;2.652;2022-12-13T07:52:49;4.88;;;0.60;;
68449;SDS011;55434;39.570;2.652;2022-12-13T07:55:16;3.65;;;0.50;;
68449;SDS011;55434;39.570;2.652;2022-12-13T07:57:43;3.80;;;0.47;;
68449;SDS011;55434;39.570;2.652;2022-12-13T08:00:11;2.55;;;0.40;;
68449;SDS011;55434;39.570;2.652;2022-12-13T08:02:40;4.65;;;0.80;;
68449;SDS011;55434;39.570;2.652;2022-12-13T08:05:07;3.08;;;0.50;;
68449;SDS011;55434;39.570;2.652;2022-12-13T08:07:34;3.15;;;0.50;;
68449;SDS011;55434;39.570;2.652;2022-12-13T08:10:08;2.20;;;0.50;;
68449;SDS011;55434;39.570;2.652;2022-12-13T08:12:39;8.20;;;1.00;;
68449;SDS011;55434;39.570;2.652;2022-12-13T08:15:05;2.97;;;0.50;;
68449;SDS011;55434;39.570;2.652;2022-12-13T08:17:31;4.17;;;0.60;;
68449;SDS011;55434;39.570;2.652;2022-12-13T08:19:57;4.82;;;0.50;;
68449;SDS011;55434;39.570;2.652;2022-12-13T08:22:23;2.90;;;0.53;;
68449;SDS011;55434;39.570;2.652;2022-12-13T08:24:49;2.53;;;0.40;;
68449;SDS011;55434;39.570;2.652;2022-12-13T08:27:29;4.10;;;0.60;;
68449;SDS011;55434;39.570;2.652;2022-12-13T08:29:55;5.33;;;1.00;;
68449;SDS011;55434;39.570;2.652;2022-12-13T08:32:42;4.32;;;0.68;;
68449;SDS011;55434;39.570;2.652;2022-12-13T08:35:08;2.63;;;0.60;;
68449;SDS011;55434;39.570;2.652;2022-12-13T08:37:34;3.20;;;0.67;;
68449;SDS011;55434;39.570;2.652;2022-12-13T08:40:00;3.60;;;0.60;;
68449;SDS011;55434;39.570;2.652;2022-12-13T08:42:31;4.25;;;0.93;;
68449;SDS011;55434;39.570;2.652;2022-12-13T08:44:56;2.77;;;0.67;;
68449;SDS011;55434;39.570;2.652;2022-12-13T08:47:23;2.95;;;0.57;;
68449;SDS011;55434;39.570;2.652;2022-12-13T08:50:00;4.70;;;0.83;;
68449;SDS011;55434;39.570;2.652;2022-12-13T08:52:26;4.88;;;0.93;;
68449;SDS011;55434;39.570;2.652;2022-12-13T08:54:52;3.10;;;0.70;;
68449;SDS011;55434;39.570;2.652;2022-12-13T08:57:34;2.92;;;0.65;;
68449;SDS011;55434;39.570;2.652;2022-12-13T09:00:02;3.90;;;0.70;;
68449;SDS011;55434;39.570;2.652;2022-12-13T09:02:31;6.10;;;0.90;;
68449;SDS011;55434;39.570;2.652;2022-12-13T09:04:57;3.17;;;0.80;;
68449;SDS011;55434;39.570;2.652;2022-12-13T09:07:22;4.47;;;0.70;;
68449;SDS011;55434;39.570;2.652;2022-12-13T09:10:03;5.28;;;0.70;;
68449;SDS011;55434;39.570;2.652;2022-12-13T09:12:29;5.10;;;0.82;;
68449;SDS011;55434;39.570;2.652;2022-12-13T09:14:55;5.23;;;0.83;;
68449;SDS011;55434;39.570;2.652;2022-12-13T09:17:20;3.90;;;1.00;;
68449;SDS011;55434;39.570;2.652;2022-12-13T09:19:46;6.00;;;1.13;;
68449;SDS011;55434;39.570;2.652;2022-12-13T09:22:11;6.60;;;0.80;;
68449;SDS011;55434;39.570;2.652;2022-12-13T09:24:37;5.57;;;1.00;;
68449;SDS011;55434;39.570;2.652;2022-12-13T09:27:03;8.63;;;1.10;;
68449;SDS011;55434;39.570;2.652;2022-12-13T09:29:32;6.93;;;0.93;;
68449;SDS011;55434;39.570;2.652;2022-12-13T09:31:59;5.45;;;0.80;;
68449;SDS011;55434;39.570;2.652;2022-12-13T09:34:25;9.07;;;1.00;;
68449;SDS011;55434;39.570;2.652;2022-12-13T09:36:51;7.30;;;0.90;;
68449;SDS011;55434;39.570;2.652;2022-12-13T09:39:16;3.75;;;0.55;;
68449;SDS011;55434;39.570;2.652;2022-12-13T09:41:44;5.13;;;0.80;;
68449;SDS011;55434;39.570;2.652;2022-12-13T09:44:15;8.10;;;0.82;;
68449;SDS011;55434;39.570;2.652;2022-12-13T09:46:47;6.50;;;1.17;;
68449;SDS011;55434;39.570;2.652;2022-12-13T09:51:56;4.53;;;0.73;;
68449;SDS011;55434;39.570;2.652;2022-12-13T09:54:23;7.33;;;1.00;;
68449;SDS011;55434;39.570;2.652;2022-12-13T09:56:50;6.30;;;0.77;;
68449;SDS011;55434;39.570;2.652;2022-12-13T09:59:17;4.68;;;1.00;;
68449;SDS011;55434;39.570;2.652;2022-12-13T10:01:45;5.10;;;0.77;;
68449;SDS011;55434;39.570;2.652;2022-12-13T10:04:11;8.13;;;1.43;;
68449;SDS011;55434;39.570;2.652;2022-12-13T10:06:41;4.13;;;0.57;;
68449;SDS011;55434;39.570;2.652;2022-12-13T10:09:09;6.38;;;1.00;;
68449;SDS011;55434;39.570;2.652;2022-12-13T10:11:45;7.17;;;1.03;;
68449;SDS011;55434;39.570;2.652;2022-12-13T10:14:20;7.35;;;1.00;;
68449;SDS011;55434;39.570;2.652;2022-12-13T10:16:51;7.90;;;1.60;;
68449;SDS011;55434;39.570;2.652;2022-12-13T10:19:23;4.30;;;0.85;;
68449;SDS011;55434;39.570;2.652;2022-12-13T10:21:50;7.65;;;0.90;;
68449;SDS011;55434;39.570;2.652;2022-12-13T10:24:23;4.30;;;0.73;;
68449;SDS011;55434;39.570;2.652;2022-12-13T10:26:52;3.88;;;0.70;;
68449;SDS011;55434;39.570;2.652;2022-12-13T10:29:18;6.47;;;1.08;;
68449;SDS011;55434;39.570;2.652;2022-12-13T10:31:46;9.07;;;0.87;;
68449;SDS011;55434;39.570;2.652;2022-12-13T10:39:47;5.32;;;0.73;;
68449;SDS011;55434;39.570;2.652;2022-12-13T10:42:13;3.93;;;0.73;;
68449;SDS011;55434;39.570;2.652;2022-12-13T10:44:40;5.53;;;1.02;;
68449;SDS011;55434;39.570;2.652;2022-12-13T10:52:23;5.82;;;0.90;;
68449;SDS011;55434;39.570;2.652;2022-12-13T10:55:05;2.90;;;0.53;;
68449;SDS011;55434;39.570;2.652;2022-12-13T10:57:51;6.72;;;1.10;;
68449;SDS011;55434;39.570;2.652;2022-12-13T11:00:37;3.75;;;0.80;;
68449;SDS011;55434;39.570;2.652;2022-12-13T11:03:06;6.00;;;1.58;;
68449;SDS011;55434;39.570;2.652;2022-12-13T11:05:34;5.90;;;1.05;;
68449;SDS011;55434;39.570;2.652;2022-12-13T11:08:41;5.30;;;1.00;;
68449;SDS011;55434;39.570;2.652;2022-12-13T11:11:01;6.43;;;0.93;;
68449;SDS011;55434;39.570;2.652;2022-12-13T11:16:15;6.28;;;1.00;;
68449;SDS011;55434;39.570;2.652;2022-12-13T11:18:50;6.35;;;1.30;;
68449;SDS011;55434;39.570;2.652;2022-12-13T11:21:35;5.37;;;0.90;;
68449;SDS011;55434;39.570;2.652;2022-12-13T11:24:05;6.90;;;1.15;;
68449;SDS011;55434;39.570;2.652;2022-12-13T11:26:34;5.80;;;1.05;;
68449;SDS011;55434;39.570;2.652;2022-12-13T11:35:25;4.03;;;0.63;;
68449;SDS011;55434;39.570;2.652;2022-12-13T11:40:45;6.00;;;1.40;;
68449;SDS011;55434;39.570;2.652;2022-12-13T11:46:12;7.43;;;1.00;;
68449;SDS011;55434;39.570;2.652;2022-12-13T11:51:11;6.30;;;1.10;;
68449;SDS011;55434;39.570;2.652;2022-12-13T12:02:08;5.07;;;0.70;;
68449;SDS011;55434;39.570;2.652;2022-12-13T12:04:44;9.73;;;1.00;;
68449;SDS011;55434;39.570;2.652;2022-12-13T12:07:19;7.13;;;1.40;;
68449;SDS011;55434;39.570;2.652;2022-12-13T12:09:53;5.88;;;1.02;;
68449;SDS011;55434;39.570;2.652;2022-12-13T12:12:30;9.00;;;1.45;;
68449;SDS011;55434;39.570;2.652;2022-12-13T12:15:02;26.83;;;9.23;;
68449;SDS011;55434;39.570;2.652;2022-12-13T12:17:37;10.68;;;2.08;;
68449;SDS011;55434;39.570;2.652;2022-12-13T12:20:03;9.20;;;2.22;;
68449;SDS011;55434;39.570;2.652;2022-12-13T12:25:48;13.27;;;2.97;;
68449;SDS011;55434;39.570;2.652;2022-12-13T12:28:42;10.68;;;1.85;;
68449;SDS011;55434;39.570;2.652;2022-12-13T12:31:22;8.55;;;2.03;;
68449;SDS011;55434;39.570;2.652;2022-12-13T12:34:20;15.70;;;4.43;;
68449;SDS011;55434;39.570;2.652;2022-12-13T12:42:31;6.07;;;1.40;;
68449;SDS011;55434;39.570;2.652;2022-12-13T12:48:21;7.70;;;1.67;;
68449;SDS011;55434;39.570;2.652;2022-12-13T12:51:14;10.85;;;3.58;;
68449;SDS011;55434;39.570;2.652;2022-12-13T12:53:53;7.38;;;1.08;;
68449;SDS011;55434;39.570;2.652;2022-12-13T12:56:41;6.22;;;0.90;;
68449;SDS011;55434;39.570;2.652;2022-12-13T12:59:12;6.30;;;1.00;;
68449;SDS011;55434;39.570;2.652;2022-12-13T13:01:59;5.22;;;0.93;;
68449;SDS011;55434;39.570;2.652;2022-12-13T13:04:47;4.07;;;0.80;;
68449;SDS011;55434;39.570;2.652;2022-12-13T13:07:20;6.00;;;1.00;;
68449;SDS011;55434;39.570;2.652;2022-12-13T13:09:50;6.65;;;1.58;;
68449;SDS011;55434;39.570;2.652;2022-12-13T13:12:17;8.70;;;1.90;;
68449;SDS011;55434;39.570;2.652;2022-12-13T13:14:43;8.45;;;1.48;;
68449;SDS011;55434;39.570;2.652;2022-12-13T13:27:34;8.67;;;1.13;;
68449;SDS011;55434;39.570;2.652;2022-12-13T13:30:19;13.40;;;1.70;;
68449;SDS011;55434;39.570;2.652;2022-12-13T13:32:52;7.13;;;0.98;;
68449;SDS011;55434;39.570;2.652;2022-12-13T13:40:50;11.27;;;1.60;;
68449;SDS011;55434;39.570;2.652;2022-12-13T13:43:16;13.40;;;2.25;;
68449;SDS011;55434;39.570;2.652;2022-12-13T13:46:07;17.42;;;3.03;;
68449;SDS011;55434;39.570;2.652;2022-12-13T13:48:38;19.38;;;3.03;;
68449;SDS011;55434;39.570;2.652;2022-12-13T13:51:36;23.10;;;2.67;;
68449;SDS011;55434;39.570;2.652;2022-12-13T13:57:17;13.40;;;2.70;;
68449;SDS011;55434;39.570;2.652;2022-12-13T14:00:10;13.20;;;2.35;;
68449;SDS011;55434;39.570;2.652;2022-12-13T14:09:09;24.87;;;3.60;;
68449;SDS011;55434;39.570;2.652;2022-12-13T14:20:42;15.15;;;2.70;;
68449;SDS011;55434;39.570;2.652;2022-12-13T14:23:42;30.03;;;2.57;;
68449;SDS011;55434;39.570;2.652;2022-12-13T14:29:01;18.90;;;3.00;;
68449;SDS011;55434;39.570;2.652;2022-12-13T14:31:32;21.77;;;3.17;;
68449;SDS011;55434;39.570;2.652;2022-12-13T14:34:03;20.30;;;2.83;;
68449;SDS011;55434;39.570;2.652;2022-12-13T14:36:32;20.67;;;2.77;;
68449;SDS011;55434;39.570;2.652;2022-12-13T14:39:15;20.17;;;3.03;;
68449;SDS011;55434;39.570;2.652;2022-12-13T14:41:45;26.85;;;3.70;;
68449;SDS011;55434;39.570;2.652;2022-12-13T14:44:22;23.35;;;4.18;;
68449;SDS011;55434;39.570;2.652;2022-12-13T14:46:53;20.10;;;3.33;;
68449;SDS011;55434;39.570;2.652;2022-12-13T14:49:20;19.50;;;2.40;;
68449;SDS011;55434;39.570;2.652;2022-12-13T14:51:49;20.58;;;2.97;;
68449;SDS011;55434;39.570;2.652;2022-12-13T14:54:25;24.20;;;2.88;;
68449;SDS011;55434;39.570;2.652;2022-12-13T14:56:55;23.98;;;3.88;;
68449;SDS011;55434;39.570;2.652;2022-12-13T14:59:26;21.23;;;3.28;;
68449;SDS011;55434;39.570;2.652;2022-12-13T15:01:59;20.87;;;3.30;;
68449;SDS011;55434;39.570;2.652;2022-12-13T15:04:33;20.63;;;3.05;;
68449;SDS011;55434;39.570;2.652;2022-12-13T15:09:27;27.10;;;3.17;;
68449;SDS011;55434;39.570;2.652;2022-12-13T15:11:54;26.77;;;3.47;;
68449;SDS011;55434;39.570;2.652;2022-12-13T15:14:22;27.20;;;3.90;;
68449;SDS011;55434;39.570;2.652;2022-12-13T15:16:49;17.55;;;2.58;;
68449;SDS011;55434;39.570;2.652;2022-12-13T15:19:18;29.95;;;3.47;;
68449;SDS011;55434;39.570;2.652;2022-12-13T15:22:03;28.23;;;3.47;;
68449;SDS011;55434;39.570;2.652;2022-12-13T15:24:32;17.60;;;2.85;;
68449;SDS011;55434;39.570;2.652;2022-12-13T15:27:01;20.98;;;3.03;;
68449;SDS011;55434;39.570;2.652;2022-12-13T15:29:28;22.10;;;3.00;;
68449;SDS011;55434;39.570;2.652;2022-12-13T15:31:55;26.75;;;3.30;;
68449;SDS011;55434;39.570;2.652;2022-12-13T15:36:54;20.75;;;3.33;;
68449;SDS011;55434;39.570;2.652;2022-12-13T15:39:22;25.65;;;2.95;;
68449;SDS011;55434;39.570;2.652;2022-12-13T15:41:48;23.88;;;3.00;;
68449;SDS011;55434;39.570;2.652;2022-12-13T15:47:10;29.47;;;4.23;;
68449;SDS011;55434;39.570;2.652;2022-12-13T15:49:48;26.98;;;4.03;;
68449;SDS011;55434;39.570;2.652;2022-12-13T15:52:25;23.35;;;3.20;;
68449;SDS011;55434;39.570;2.652;2022-12-13T15:57:52;27.58;;;4.28;;
68449;SDS011;55434;39.570;2.652;2022-12-13T16:00:21;22.90;;;3.20;;
68449;SDS011;55434;39.570;2.652;2022-12-13T16:02:55;25.95;;;3.20;;
68449;SDS011;55434;39.570;2.652;2022-12-13T16:05:27;24.73;;;3.83;;
68449;SDS011;55434;39.570;2.652;2022-12-13T16:07:53;27.25;;;3.75;;
68449;SDS011;55434;39.570;2.652;2022-12-13T16:10:20;24.90;;;3.47;;
68449;SDS011;55434;39.570;2.652;2022-12-13T16:12:47;28.07;;;3.67;;
68449;SDS011;55434;39.570;2.652;2022-12-13T16:17:50;24.88;;;3.78;;
68449;SDS011;55434;39.570;2.652;2022-12-13T16:20:18;27.42;;;4.35;;
68449;SDS011;55434;39.570;2.652;2022-12-13T16:22:45;17.95;;;3.55;;
68449;SDS011;55434;39.570;2.652;2022-12-13T16:25:13;28.90;;;4.73;;
68449;SDS011;55434;39.570;2.652;2022-12-13T16:27:40;24.58;;;4.20;;
68449;SDS011;55434;39.570;2.652;2022-12-13T16:30:13;26.35;;;4.13;;
68449;SDS011;55434;39.570;2.652;2022-12-13T16:32:47;29.67;;;4.28;;
68449;SDS011;55434;39.570;2.652;2022-12-13T16:35:13;30.33;;;3.67;;
68449;SDS011;55434;39.570;2.652;2022-12-13T16:37:39;17.90;;;3.28;;
68449;SDS011;55434;39.570;2.652;2022-12-13T16:42:43;23.60;;;3.80;;
68449;SDS011;55434;39.570;2.652;2022-12-13T16:45:11;33.57;;;4.43;;
68449;SDS011;55434;39.570;2.652;2022-12-13T16:47:37;29.27;;;4.22;;
68449;SDS011;55434;39.570;2.652;2022-12-13T16:50:05;30.47;;;3.17;;
68449;SDS011;55434;39.570;2.652;2022-12-13T16:52:37;26.85;;;2.90;;
68449;SDS011;55434;39.570;2.652;2022-12-13T16:55:04;25.23;;;3.53;;
68449;SDS011;55434;39.570;2.652;2022-12-13T16:57:30;27.63;;;3.90;;
68449;SDS011;55434;39.570;2.652;2022-12-13T16:59:55;29.65;;;5.43;;
68449;SDS011;55434;39.570;2.652;2022-12-13T17:02:21;30.57;;;5.57;;
68449;SDS011;55434;39.570;2.652;2022-12-13T17:04:47;25.40;;;4.28;;
68449;SDS011;55434;39.570;2.652;2022-12-13T17:07:12;25.37;;;3.73;;
68449;SDS011;55434;39.570;2.652;2022-12-13T17:09:38;23.98;;;3.28;;
68449;SDS011;55434;39.570;2.652;2022-12-13T17:12:05;27.60;;;5.47;;
68449;SDS011;55434;39.570;2.652;2022-12-13T17:14:31;34.67;;;4.15;;
68449;SDS011;55434;39.570;2.652;2022-12-13T17:16:56;24.73;;;4.40;;